createdAt,value
2017-10-25T00:01:05.113Z,86.18
2017-10-25T00:03:32.539Z,86.14
2017-10-25T00:06:00.330Z,86.32
2017-10-25T00:08:27.763Z,86.60
2017-10-25T00:10:55.172Z,86.40
2017-10-25T00:13:22.608Z,86.77
2017-10-25T00:15:50.025Z,86.83
2017-10-25T00:18:17.445Z,86.95
2017-10-25T00:20:44.863Z,86.96
2017-10-25T00:23:12.329Z,86.92
2017-10-25T00:25:39.741Z,86.79
2017-10-25T00:28:07.202Z,86.91
2017-10-25T00:30:34.587Z,86.83
2017-10-25T00:33:02.022Z,87.06
2017-10-25T00:35:29.440Z,87.28
2017-10-25T00:37:56.837Z,87.34
2017-10-25T00:40:24.317Z,87.35
2017-10-25T00:42:51.715Z,87.37
2017-10-25T00:45:19.164Z,87.36
2017-10-25T00:47:46.628Z,87.16
2017-10-25T00:50:14.077Z,87.19
2017-10-25T00:52:41.502Z,87.11
2017-10-25T00:55:08.932Z,87.27
2017-10-25T00:57:36.341Z,87.42
2017-10-25T01:00:03.765Z,87.45
2017-10-25T01:02:31.192Z,87.57
2017-10-25T01:04:58.627Z,87.60
2017-10-25T01:07:26.099Z,87.48
2017-10-25T01:09:53.490Z,87.39
2017-10-25T01:12:20.945Z,87.35
2017-10-25T01:14:48.379Z,87.30
2017-10-25T01:17:16.413Z,87.19
2017-10-25T01:19:43.819Z,87.12
2017-10-25T01:22:11.253Z,87.26
2017-10-25T01:24:38.675Z,87.28
2017-10-25T01:27:06.079Z,87.57
2017-10-25T01:29:33.543Z,87.79
2017-10-25T01:32:00.969Z,87.88
2017-10-25T01:34:28.362Z,88.03
2017-10-25T01:36:55.794Z,87.99
2017-10-25T01:39:23.227Z,87.92
2017-10-25T01:41:50.649Z,87.96
2017-10-25T01:44:18.091Z,87.84
2017-10-25T01:46:45.506Z,87.77
2017-10-25T01:49:12.955Z,87.83
2017-10-25T01:51:40.366Z,87.67
2017-10-25T01:54:07.783Z,87.78
2017-10-25T01:56:35.203Z,87.78
2017-10-25T01:59:02.654Z,88.03
2017-10-25T02:01:30.048Z,87.84
2017-10-25T02:03:57.488Z,87.66
2017-10-25T02:06:24.927Z,87.54
2017-10-25T02:08:52.408Z,87.48
2017-10-25T02:11:19.828Z,87.43
2017-10-25T02:13:47.234Z,87.40
2017-10-25T02:16:14.719Z,87.42
2017-10-25T02:18:42.137Z,87.43
2017-10-25T02:21:09.567Z,87.44
2017-10-25T02:23:36.981Z,87.41
2017-10-25T02:26:04.411Z,87.31
2017-10-25T02:28:31.819Z,87.40
2017-10-25T02:30:59.263Z,87.43
2017-10-25T02:33:26.682Z,87.26
2017-10-25T02:35:54.088Z,87.27
2017-10-25T02:38:21.543Z,87.18
2017-10-25T02:40:48.951Z,87.00
2017-10-25T02:43:16.421Z,87.03
2017-10-25T02:45:43.837Z,87.13
2017-10-25T02:48:12.183Z,87.16
2017-10-25T02:50:39.568Z,87.09
2017-10-25T02:53:07.022Z,87.20
2017-10-25T02:55:34.477Z,87.23
2017-10-25T02:58:01.903Z,87.32
2017-10-25T03:00:29.313Z,87.33
2017-10-25T03:02:56.749Z,87.26
2017-10-25T03:05:24.196Z,87.22
2017-10-25T03:07:51.595Z,87.19
2017-10-25T03:10:19.053Z,87.24
2017-10-25T03:12:46.444Z,87.46
2017-10-25T03:15:13.922Z,87.60
2017-10-25T03:17:41.308Z,87.75
2017-10-25T03:20:08.762Z,87.79
2017-10-25T03:22:36.188Z,87.75
2017-10-25T03:25:03.628Z,87.67
2017-10-25T03:27:31.040Z,87.64
2017-10-25T03:29:58.456Z,87.55
2017-10-25T03:32:25.892Z,87.50
2017-10-25T03:34:53.331Z,87.38
2017-10-25T03:37:20.759Z,87.48
2017-10-25T03:39:48.160Z,87.71
2017-10-25T03:42:15.595Z,87.63
2017-10-25T03:44:43.024Z,87.76
2017-10-25T03:47:10.450Z,87.75
2017-10-25T03:49:37.894Z,87.76
2017-10-25T03:52:05.296Z,87.93
2017-10-25T03:54:32.773Z,87.83
2017-10-25T03:57:00.184Z,87.74
2017-10-25T03:59:27.637Z,87.64
2017-10-25T04:01:55.019Z,87.62
2017-10-25T04:04:22.481Z,87.57
2017-10-25T04:06:50.731Z,87.46
2017-10-25T04:09:18.181Z,87.37
2017-10-25T04:11:45.575Z,87.28
2017-10-25T04:14:13.024Z,87.20
2017-10-25T04:16:40.452Z,87.42
2017-10-25T04:19:07.856Z,87.42
2017-10-25T04:21:35.288Z,87.32
2017-10-25T04:24:02.735Z,87.18
2017-10-25T04:26:30.184Z,87.07
2017-10-25T04:28:57.601Z,87.18
2017-10-25T04:31:25.021Z,87.35
2017-10-25T04:33:52.473Z,87.47
2017-10-25T04:36:19.884Z,87.32
2017-10-25T04:38:47.303Z,87.40
2017-10-25T04:41:14.726Z,87.35
2017-10-25T04:43:42.155Z,87.35
2017-10-25T04:46:09.547Z,87.40
2017-10-25T04:48:37.025Z,87.38
2017-10-25T04:51:04.422Z,87.37
2017-10-25T04:53:31.845Z,87.61
2017-10-25T04:55:59.277Z,87.63
2017-10-25T04:58:26.724Z,87.71
2017-10-25T05:00:54.150Z,87.71
2017-10-25T05:03:21.588Z,87.70
2017-10-25T05:05:49.023Z,87.57
2017-10-25T05:08:16.455Z,87.35
2017-10-25T05:10:43.856Z,87.15
2017-10-25T05:13:11.308Z,87.11
2017-10-25T05:15:38.722Z,87.04
2017-10-25T05:18:06.184Z,86.94
2017-10-25T05:20:33.605Z,86.91
2017-10-25T05:23:01.137Z,86.96
2017-10-25T05:25:28.563Z,86.93
2017-10-25T05:27:55.992Z,87.22
2017-10-25T05:30:23.441Z,87.43
2017-10-25T05:32:50.824Z,87.50
2017-10-25T05:35:18.280Z,87.79
2017-10-25T05:37:45.721Z,87.91
2017-10-25T05:40:13.103Z,88.00
2017-10-25T05:42:40.549Z,88.12
2017-10-25T05:45:07.957Z,88.21
2017-10-25T05:47:35.383Z,88.06
2017-10-25T05:50:02.803Z,87.93
2017-10-25T05:52:30.200Z,87.85
2017-10-25T05:54:58.474Z,87.71
2017-10-25T05:57:25.928Z,87.63
2017-10-25T05:59:53.357Z,87.54
2017-10-25T06:02:20.821Z,87.53
2017-10-25T06:04:48.217Z,87.69
2017-10-25T06:07:15.642Z,87.73
2017-10-25T06:09:43.060Z,87.79
2017-10-25T06:12:10.501Z,87.72
2017-10-25T06:14:37.972Z,87.81
2017-10-25T06:17:05.412Z,87.96
2017-10-25T06:19:32.797Z,88.35
2017-10-25T06:22:00.214Z,88.27
2017-10-25T06:24:27.810Z,88.33
2017-10-25T06:26:55.192Z,88.49
2017-10-25T06:29:23.305Z,88.39
2017-10-25T06:31:50.696Z,88.46
2017-10-25T06:34:18.171Z,88.45
2017-10-25T06:36:45.570Z,88.52
2017-10-25T06:39:12.999Z,88.52
2017-10-25T06:41:40.525Z,88.49
2017-10-25T06:44:07.947Z,88.52
2017-10-25T06:46:35.363Z,88.51
2017-10-25T06:49:02.805Z,88.34
2017-10-25T06:51:30.241Z,88.22
2017-10-25T06:53:57.676Z,88.11
2017-10-25T06:56:25.121Z,88.17
2017-10-25T06:58:52.512Z,88.14
2017-10-25T07:01:19.975Z,87.98
2017-10-25T07:03:47.441Z,87.81
2017-10-25T07:06:14.878Z,87.63
2017-10-25T07:08:42.280Z,87.68
2017-10-25T07:11:09.723Z,87.59
2017-10-25T07:13:37.122Z,87.35
2017-10-25T07:16:05.448Z,87.13
2017-10-25T07:18:32.905Z,87.00
2017-10-25T07:21:00.318Z,86.94
2017-10-25T07:23:27.731Z,86.84
2017-10-25T07:25:55.124Z,86.64
2017-10-25T07:28:22.569Z,86.33
2017-10-25T07:30:49.969Z,86.45
2017-10-25T07:33:17.417Z,86.36
2017-10-25T07:35:44.876Z,86.37
2017-10-25T07:38:12.292Z,86.36
2017-10-25T07:40:39.688Z,86.26
2017-10-25T07:43:07.113Z,86.31
2017-10-25T07:45:34.533Z,86.38
2017-10-25T07:48:01.986Z,86.39
2017-10-25T07:50:29.383Z,86.45
2017-10-25T07:52:56.788Z,86.42
2017-10-25T07:55:24.218Z,86.42
2017-10-25T07:57:51.704Z,86.22
2017-10-25T08:00:19.148Z,86.03
2017-10-25T08:02:46.565Z,86.18
2017-10-25T08:05:14.050Z,86.10
2017-10-25T08:07:41.525Z,86.14
2017-10-25T08:10:08.984Z,86.03
2017-10-25T08:12:36.415Z,85.89
2017-10-25T08:15:03.841Z,85.90
2017-10-25T08:17:31.233Z,85.75
2017-10-25T08:19:58.685Z,85.56
2017-10-25T08:22:26.084Z,85.49
2017-10-25T08:24:53.501Z,85.44
2017-10-25T08:27:20.952Z,85.27
2017-10-25T08:29:48.384Z,85.26
2017-10-25T08:32:15.844Z,85.12
2017-10-25T08:34:43.248Z,85.21
2017-10-25T08:37:11.403Z,85.13
2017-10-25T08:39:38.830Z,85.01
2017-10-25T08:42:06.287Z,85.16
2017-10-25T08:44:33.803Z,85.01
2017-10-25T08:47:01.236Z,84.81
2017-10-25T08:49:28.680Z,84.36
2017-10-25T08:51:56.109Z,84.49
2017-10-25T08:54:23.557Z,84.54
2017-10-25T08:56:50.988Z,84.20
2017-10-25T08:59:19.711Z,84.08
2017-10-25T09:01:53.153Z,84.04
2017-10-25T09:04:21.652Z,83.57
2017-10-25T09:06:49.184Z,83.26
2017-10-25T09:09:29.165Z,82.91
2017-10-25T09:11:56.655Z,82.84
2017-10-25T09:14:28.790Z,82.65
2017-10-25T09:16:57.697Z,82.52
2017-10-25T09:19:26.236Z,82.51
2017-10-25T09:21:54.556Z,82.30
2017-10-25T09:24:21.963Z,82.22
2017-10-25T09:26:49.487Z,81.98
2017-10-25T09:29:16.896Z,81.80
2017-10-25T09:31:44.314Z,81.67
2017-10-25T09:34:11.700Z,81.60
2017-10-25T09:36:39.829Z,81.44
2017-10-25T09:39:07.221Z,81.29
2017-10-25T09:41:34.675Z,80.73
2017-10-25T09:44:02.110Z,80.22
2017-10-25T09:46:29.629Z,79.73
2017-10-25T09:48:57.040Z,79.42
2017-10-25T09:51:25.018Z,79.56
2017-10-25T09:53:52.482Z,79.42
2017-10-25T09:56:21.448Z,79.23
2017-10-25T09:58:48.891Z,78.54
2017-10-25T10:01:16.279Z,78.29
2017-10-25T10:03:44.000Z,77.85
2017-10-25T10:06:11.393Z,78.17
2017-10-25T10:08:38.796Z,78.02
2017-10-25T10:11:06.216Z,77.95
2017-10-25T10:13:33.640Z,77.84
2017-10-25T10:16:02.331Z,77.42
2017-10-25T10:18:29.781Z,77.05
2017-10-25T10:20:57.208Z,77.21
2017-10-25T10:23:24.664Z,77.06
2017-10-25T10:25:52.079Z,76.98
2017-10-25T10:28:19.510Z,76.15
2017-10-25T10:30:46.943Z,76.23
2017-10-25T10:33:14.348Z,76.07
2017-10-25T10:35:41.774Z,76.21
2017-10-25T10:38:09.269Z,76.18
2017-10-25T10:40:36.651Z,75.91
2017-10-25T10:43:04.152Z,75.37
2017-10-25T10:45:31.567Z,75.97
2017-10-25T10:47:58.989Z,76.16
2017-10-25T10:50:26.385Z,76.00
2017-10-25T10:52:53.805Z,76.27
2017-10-25T10:55:21.225Z,75.96
2017-10-25T10:57:48.658Z,75.63
2017-10-25T11:00:16.959Z,76.29
2017-10-25T11:02:44.421Z,76.48
2017-10-25T11:05:11.837Z,76.32
2017-10-25T11:07:39.256Z,76.75
2017-10-25T11:10:06.717Z,76.73
2017-10-25T11:12:34.127Z,76.99
2017-10-25T11:15:01.565Z,76.75
2017-10-25T11:17:28.975Z,76.74
2017-10-25T11:19:56.424Z,76.20
2017-10-25T11:22:23.838Z,76.50
2017-10-25T11:24:51.259Z,76.75
2017-10-25T11:27:18.643Z,76.87
2017-10-25T11:29:46.065Z,76.84
2017-10-25T11:32:13.493Z,77.04
2017-10-25T11:34:40.944Z,76.28
2017-10-25T11:37:08.385Z,76.40
2017-10-25T11:39:35.773Z,77.08
2017-10-25T11:42:03.227Z,77.19
2017-10-25T11:44:30.650Z,76.53
2017-10-25T11:46:58.142Z,75.90
2017-10-25T11:49:25.545Z,75.32
2017-10-25T11:51:52.962Z,74.42
2017-10-25T11:54:20.372Z,73.94
2017-10-25T11:56:47.835Z,73.58
2017-10-25T11:59:15.214Z,73.69
2017-10-25T12:01:42.638Z,74.12
2017-10-25T12:04:10.109Z,74.00
2017-10-25T12:06:37.788Z,74.39
2017-10-25T12:09:05.254Z,74.59
2017-10-25T12:11:32.705Z,74.70
2017-10-25T12:14:00.160Z,74.68
2017-10-25T12:16:27.543Z,74.56
2017-10-25T12:18:55.040Z,74.22
2017-10-25T12:21:22.529Z,74.00
2017-10-25T12:23:49.918Z,74.43
2017-10-25T12:26:17.346Z,74.78
2017-10-25T12:28:44.768Z,74.96
2017-10-25T12:31:12.761Z,74.63
2017-10-25T12:33:40.215Z,74.22
2017-10-25T12:36:07.641Z,74.46
2017-10-25T12:38:35.057Z,73.66
2017-10-25T12:41:02.664Z,73.22
2017-10-25T12:43:30.060Z,72.61
2017-10-25T12:45:57.488Z,72.83
2017-10-25T12:48:24.926Z,73.40
2017-10-25T12:50:52.360Z,73.71
2017-10-25T12:53:19.791Z,74.11
2017-10-25T12:55:47.201Z,74.35
2017-10-25T12:58:14.636Z,74.80
2017-10-25T13:00:42.069Z,75.26
2017-10-25T13:03:09.539Z,75.29
2017-10-25T13:05:36.981Z,75.57
2017-10-25T13:08:04.416Z,75.22
2017-10-25T13:10:45.853Z,74.58
2017-10-25T13:13:25.968Z,73.75
2017-10-25T13:16:17.707Z,73.28
2017-10-25T13:18:45.151Z,73.47
2017-10-25T13:21:12.575Z,73.31
2017-10-25T13:23:40.052Z,73.43
2017-10-25T13:26:07.536Z,73.50
2017-10-25T13:28:34.968Z,73.48
2017-10-25T13:31:02.397Z,73.98
2017-10-25T13:33:29.825Z,73.91
2017-10-25T13:35:57.285Z,74.07
2017-10-25T13:38:24.704Z,73.79
2017-10-25T13:40:52.098Z,73.96
2017-10-25T13:43:19.552Z,73.76
2017-10-25T13:45:47.012Z,73.78
2017-10-25T13:48:14.497Z,73.41
2017-10-25T13:50:42.032Z,73.40
2017-10-25T13:53:09.473Z,73.58
2017-10-25T13:55:37.807Z,73.80
2017-10-25T13:58:05.217Z,73.91
2017-10-25T14:00:32.787Z,74.22
2017-10-25T14:03:00.207Z,74.33
2017-10-25T14:05:27.660Z,73.69
2017-10-25T14:07:55.100Z,73.12
2017-10-25T14:10:22.559Z,72.65
2017-10-25T14:12:50.260Z,72.93
2017-10-25T14:15:17.704Z,72.88
2017-10-25T14:17:45.151Z,73.33
2017-10-25T14:20:12.552Z,73.79
2017-10-25T14:22:39.984Z,74.11
2017-10-25T14:25:07.447Z,74.14
2017-10-25T14:27:46.683Z,73.81
2017-10-25T14:30:14.088Z,73.95
2017-10-25T14:32:41.543Z,73.92
2017-10-25T14:35:08.957Z,73.81
2017-10-25T14:37:36.423Z,73.48
2017-10-25T14:40:04.027Z,73.34
2017-10-25T14:42:31.495Z,73.31
2017-10-25T14:44:59.235Z,73.71
2017-10-25T14:47:26.673Z,73.90
2017-10-25T14:49:54.567Z,73.68
2017-10-25T14:52:22.037Z,74.13
2017-10-25T14:54:49.467Z,74.53
2017-10-25T14:57:16.902Z,74.89
2017-10-25T14:59:44.320Z,74.65
2017-10-25T15:02:11.753Z,74.67
2017-10-25T15:04:39.269Z,74.63
2017-10-25T15:07:06.707Z,74.64
2017-10-25T15:09:34.119Z,75.13
2017-10-25T15:12:01.583Z,75.31
2017-10-25T15:14:28.997Z,75.54
2017-10-25T15:16:56.450Z,75.79
2017-10-25T15:19:23.943Z,75.89
2017-10-25T15:21:51.396Z,76.10
2017-10-25T15:24:18.935Z,76.02
2017-10-25T15:26:47.097Z,76.18
2017-10-25T15:29:14.531Z,76.35
2017-10-25T15:31:43.613Z,76.69
2017-10-25T15:34:12.464Z,76.61
2017-10-25T15:36:40.641Z,76.39
2017-10-25T15:39:08.120Z,76.60
2017-10-25T15:41:35.625Z,76.85
2017-10-25T15:44:03.050Z,77.03
2017-10-25T15:46:30.490Z,77.20
2017-10-25T15:48:57.900Z,77.34
2017-10-25T15:51:25.300Z,77.16
2017-10-25T15:53:52.892Z,77.11
2017-10-25T15:56:20.313Z,76.85
2017-10-25T15:58:47.823Z,76.90
2017-10-25T16:01:15.241Z,76.88
2017-10-25T16:03:42.684Z,76.71
2017-10-25T16:06:10.141Z,76.67
2017-10-25T16:08:37.595Z,76.63
2017-10-25T16:11:05.070Z,76.64
2017-10-25T16:13:32.495Z,76.76
2017-10-25T16:15:59.924Z,77.04
2017-10-25T16:18:27.398Z,77.04
2017-10-25T16:20:54.823Z,77.13
2017-10-25T16:23:22.224Z,76.95
2017-10-25T16:25:50.561Z,76.63
2017-10-25T16:28:17.991Z,76.61
2017-10-25T16:30:45.465Z,76.62
2017-10-25T16:33:12.892Z,76.81
2017-10-25T16:35:40.359Z,76.91
2017-10-25T16:38:07.784Z,77.05
2017-10-25T16:40:35.209Z,77.03
2017-10-25T16:43:02.682Z,77.29
2017-10-25T16:45:30.951Z,77.45
2017-10-25T16:47:59.272Z,77.29
2017-10-25T16:50:26.671Z,77.41
2017-10-25T16:52:54.128Z,77.29
2017-10-25T16:55:21.560Z,77.43
2017-10-25T16:57:48.980Z,77.45
2017-10-25T17:00:16.490Z,77.82
2017-10-25T17:02:43.914Z,78.17
2017-10-25T17:05:11.361Z,78.46
2017-10-25T17:07:38.768Z,78.43
2017-10-25T17:10:06.203Z,78.42
2017-10-25T17:12:33.617Z,78.45
2017-10-25T17:15:01.126Z,78.39
2017-10-25T17:17:28.536Z,78.29
2017-10-25T17:19:56.778Z,78.10
2017-10-25T17:22:24.230Z,78.22
2017-10-25T17:24:51.634Z,78.29
2017-10-25T17:27:19.074Z,78.02
2017-10-25T17:29:46.483Z,78.04
2017-10-25T17:32:13.957Z,78.02
2017-10-25T17:34:41.366Z,78.05
2017-10-25T17:37:08.872Z,78.00
2017-10-25T17:39:36.299Z,78.21
2017-10-25T17:42:03.723Z,78.35
2017-10-25T17:44:31.168Z,78.36
2017-10-25T17:46:58.618Z,78.46
2017-10-25T17:49:26.080Z,78.99
2017-10-25T17:51:53.505Z,79.19
2017-10-25T17:54:20.977Z,79.18
2017-10-25T17:56:48.392Z,79.12
2017-10-25T17:59:15.834Z,78.99
2017-10-25T18:01:43.258Z,78.87
2017-10-25T18:04:10.756Z,78.83
2017-10-25T18:06:38.219Z,78.73
2017-10-25T18:09:05.637Z,78.74
2017-10-25T18:11:33.089Z,78.74
2017-10-25T18:14:00.476Z,78.96
2017-10-25T18:16:27.941Z,79.14
2017-10-25T18:18:55.381Z,79.37
2017-10-25T18:21:22.779Z,79.40
2017-10-25T18:23:50.564Z,79.29
2017-10-25T18:26:17.972Z,79.37
2017-10-25T18:28:45.409Z,79.38
2017-10-25T18:31:13.173Z,79.41
2017-10-25T18:33:40.616Z,80.76
2017-10-25T18:36:08.173Z,82.27
2017-10-25T18:38:35.646Z,82.15
2017-10-25T18:41:03.234Z,80.50
2017-10-25T18:43:30.671Z,79.98
2017-10-25T18:45:58.214Z,80.19
2017-10-25T18:48:25.644Z,79.25
2017-10-25T18:50:53.957Z,78.87
2017-10-25T18:53:21.361Z,78.56
2017-10-25T18:55:48.829Z,78.54
2017-10-25T18:58:16.328Z,77.53
2017-10-25T19:00:43.753Z,77.31
2017-10-25T19:03:11.191Z,76.97
2017-10-25T19:05:39.356Z,76.73
2017-10-25T19:08:06.953Z,72.18
2017-10-25T19:10:34.633Z,72.86
2017-10-25T19:13:02.214Z,74.60
2017-10-25T19:15:29.735Z,75.73
2017-10-25T19:17:57.819Z,76.23
2017-10-25T19:20:25.277Z,76.78
2017-10-25T19:22:52.675Z,77.34
2017-10-25T19:25:20.130Z,77.93
2017-10-25T19:27:47.537Z,78.25
2017-10-25T19:30:14.998Z,78.48
2017-10-25T19:32:42.438Z,78.61
2017-10-25T19:35:09.925Z,79.17
2017-10-25T19:37:37.366Z,79.52
2017-10-25T19:40:04.836Z,79.65
2017-10-25T19:42:32.281Z,79.61
2017-10-25T19:44:59.695Z,79.47
2017-10-25T19:47:27.164Z,79.80
2017-10-25T19:49:54.572Z,79.54
2017-10-25T19:52:22.004Z,79.26
2017-10-25T19:54:49.431Z,79.59
2017-10-25T19:57:16.863Z,79.73
2017-10-25T19:59:44.378Z,79.70
2017-10-25T20:02:11.769Z,79.40
2017-10-25T20:04:39.258Z,79.49
2017-10-25T20:07:06.719Z,79.59
2017-10-25T20:09:34.141Z,79.54
2017-10-25T20:12:01.565Z,79.58
2017-10-25T20:14:29.863Z,79.92
2017-10-25T20:16:57.356Z,80.04
2017-10-25T20:19:24.825Z,80.25
2017-10-25T20:21:52.282Z,80.34
2017-10-25T20:24:19.761Z,80.26
2017-10-25T20:26:47.188Z,79.93
2017-10-25T20:29:14.660Z,79.95
2017-10-25T20:31:42.052Z,79.76
2017-10-25T20:34:09.509Z,79.50
2017-10-25T20:36:36.945Z,79.44
2017-10-25T20:39:04.388Z,79.52
2017-10-25T20:41:31.830Z,79.64
2017-10-25T20:43:59.244Z,79.61
2017-10-25T20:46:26.660Z,79.73
2017-10-25T20:48:54.116Z,80.01
2017-10-25T20:51:21.561Z,80.25
2017-10-25T20:53:49.460Z,80.18
2017-10-25T20:56:16.897Z,80.22
2017-10-25T20:58:44.283Z,80.11
2017-10-25T21:01:11.721Z,79.99
2017-10-25T21:03:39.165Z,79.94
2017-10-25T21:06:06.677Z,80.48
2017-10-25T21:08:34.097Z,80.43
2017-10-25T21:11:01.545Z,80.38
2017-10-25T21:13:28.956Z,80.18
2017-10-25T21:15:56.403Z,80.17
2017-10-25T21:18:23.827Z,80.04
2017-10-25T21:20:51.240Z,79.97
2017-10-25T21:23:18.669Z,79.88
2017-10-25T21:25:46.103Z,79.72
2017-10-25T21:28:13.531Z,79.93
2017-10-25T21:30:40.964Z,80.17
2017-10-25T21:33:08.404Z,80.18
2017-10-25T21:35:35.822Z,80.19
2017-10-25T21:38:03.236Z,80.69
2017-10-25T21:40:30.644Z,80.80
2017-10-25T21:42:58.088Z,80.83
2017-10-25T21:45:25.496Z,80.83
2017-10-25T21:47:53.007Z,80.73
2017-10-25T21:50:20.432Z,80.70
2017-10-25T21:52:47.843Z,80.44
2017-10-25T21:55:15.251Z,80.16
2017-10-25T21:57:42.669Z,79.80
2017-10-25T22:00:10.101Z,79.88
2017-10-25T22:02:37.516Z,79.87
2017-10-25T22:05:05.264Z,79.41
2017-10-25T22:07:32.664Z,79.38
2017-10-25T22:10:00.075Z,79.24
2017-10-25T22:12:27.509Z,79.43
2017-10-25T22:14:54.911Z,79.59
2017-10-25T22:17:22.346Z,79.96
2017-10-25T22:19:49.746Z,80.06
2017-10-25T22:22:17.168Z,79.96
2017-10-25T22:24:44.571Z,80.51
2017-10-25T22:27:12.000Z,80.88
2017-10-25T22:29:39.405Z,80.70
2017-10-25T22:32:06.855Z,80.68
2017-10-25T22:34:34.284Z,80.33
2017-10-25T22:37:01.699Z,79.29
2017-10-25T22:39:29.182Z,78.85
2017-10-25T22:41:56.575Z,78.84
2017-10-25T22:44:24.000Z,78.87
2017-10-25T22:46:51.445Z,78.95
2017-10-25T22:49:18.853Z,79.14
2017-10-25T22:51:46.296Z,79.26
2017-10-25T22:54:13.700Z,79.32
2017-10-25T22:56:41.209Z,79.27
2017-10-25T22:59:08.659Z,79.37
2017-10-25T23:01:37.096Z,79.68
2017-10-25T23:04:04.523Z,79.69
2017-10-25T23:06:31.919Z,79.76
2017-10-25T23:08:59.344Z,79.97
2017-10-25T23:11:26.767Z,79.96
2017-10-25T23:13:54.194Z,80.01
2017-10-25T23:16:21.583Z,79.88
2017-10-25T23:18:48.999Z,79.95
2017-10-25T23:21:16.408Z,79.74
2017-10-25T23:23:43.832Z,79.65
2017-10-25T23:26:11.239Z,79.72
2017-10-25T23:28:38.652Z,80.60
2017-10-25T23:31:06.083Z,80.69
2017-10-25T23:33:33.508Z,80.34
2017-10-25T23:36:00.945Z,79.53
2017-10-25T23:38:28.340Z,79.50
2017-10-25T23:40:55.776Z,79.74
2017-10-25T23:43:23.181Z,79.81
2017-10-25T23:45:50.608Z,79.92
2017-10-25T23:48:18.040Z,79.70
2017-10-25T23:50:45.620Z,79.94
2017-10-25T23:53:13.016Z,79.60
2017-10-25T23:55:40.428Z,79.71
2017-10-25T23:58:07.850Z,80.37
